createdAt,value
2022-09-11T00:01:45.910Z,74.91
2022-09-11T00:04:13.996Z,73.54
2022-09-11T00:06:41.808Z,73.87
2022-09-11T00:09:09.680Z,74.44
2022-09-11T00:11:42.955Z,74.53
2022-09-11T00:14:14.158Z,74.52
2022-09-11T00:16:45.596Z,73.16
2022-09-11T00:19:16.678Z,73.74
2022-09-11T00:21:48.537Z,75.00
2022-09-11T00:24:16.416Z,75.00
2022-09-11T00:26:47.473Z,75.66
2022-09-11T00:29:15.227Z,76.12
2022-09-11T00:31:43.089Z,76.85
2022-09-11T00:34:11.265Z,77.37
2022-09-11T00:36:41.881Z,77.17
2022-09-11T00:39:14.694Z,78.45
2022-09-11T00:41:45.063Z,78.61
2022-09-11T00:44:12.937Z,76.42
2022-09-11T00:46:48.164Z,77.28
2022-09-11T00:49:35.043Z,77.50
2022-09-11T00:52:20.828Z,76.30
2022-09-11T00:54:56.738Z,77.20
2022-09-11T00:57:29.112Z,77.21
2022-09-11T01:00:00.798Z,76.67
2022-09-11T01:02:31.896Z,75.87
2022-09-11T01:05:01.148Z,74.91
2022-09-11T01:07:32.811Z,76.27
2022-09-11T01:10:01.026Z,76.07
2022-09-11T01:12:53.784Z,76.02
2022-09-11T01:15:42.495Z,76.41
2022-09-11T01:18:20.549Z,77.87
2022-09-11T01:21:16.720Z,78.39
2022-09-11T01:24:09.361Z,76.72
2022-09-11T01:29:58.339Z,78.63
2022-09-11T01:32:44.975Z,78.36
2022-09-11T01:35:26.642Z,77.58
2022-09-11T01:38:03.970Z,77.27
2022-09-11T01:40:53.795Z,76.94
2022-09-11T01:43:37.053Z,76.98
2022-09-11T01:46:07.668Z,77.41
2022-09-11T01:48:47.704Z,77.38
2022-09-11T01:51:26.186Z,77.74
2022-09-11T01:53:57.165Z,77.29
2022-09-11T01:56:45.855Z,77.57
2022-09-11T01:59:19.435Z,78.43
2022-09-11T02:01:56.673Z,77.19
2022-09-11T02:04:32.501Z,77.51
2022-09-11T02:07:10.199Z,77.10
2022-09-11T02:09:45.501Z,78.15
2022-09-11T02:12:18.284Z,78.11
2022-09-11T02:14:49.976Z,78.02
2022-09-11T02:17:26.749Z,78.66
2022-09-11T02:19:59.241Z,78.29
2022-09-11T02:22:27.912Z,76.24
2022-09-11T02:24:56.054Z,78.04
2022-09-11T02:27:26.338Z,79.87
2022-09-11T02:29:56.658Z,81.82
2022-09-11T02:32:27.200Z,80.29
2022-09-11T02:34:56.556Z,80.88
2022-09-11T02:37:49.898Z,84.56
2022-09-11T02:40:34.578Z,84.42
2022-09-11T02:43:20.912Z,80.85
2022-09-11T02:46:20.838Z,79.71
2022-09-11T02:48:49.154Z,82.98
2022-09-11T02:51:28.929Z,81.95
2022-09-11T02:54:05.880Z,81.14
2022-09-11T02:56:44.779Z,80.88
2022-09-11T02:59:20.715Z,80.71
2022-09-11T03:01:52.272Z,80.85
2022-09-11T03:04:24.957Z,81.44
2022-09-11T03:06:54.729Z,81.67
2022-09-11T03:09:23.114Z,79.66
2022-09-11T03:11:51.606Z,81.67
2022-09-11T03:14:20.455Z,82.33
2022-09-11T03:16:48.961Z,79.68
2022-09-11T03:19:17.760Z,80.44
2022-09-11T03:21:45.992Z,79.46
2022-09-11T03:24:16.051Z,78.28
2022-09-11T03:26:44.158Z,79.44
2022-09-11T03:29:12.563Z,79.74
2022-09-11T03:31:41.845Z,81.33
2022-09-11T03:34:10.732Z,81.03
2022-09-11T03:36:39.170Z,79.37
2022-09-11T03:39:10.118Z,77.46
2022-09-11T03:41:38.330Z,76.71
2022-09-11T03:44:06.153Z,75.92
2022-09-11T03:46:35.324Z,75.21
2022-09-11T03:49:03.545Z,75.24
2022-09-11T03:51:32.429Z,75.03
2022-09-11T03:54:03.600Z,75.81
2022-09-11T03:56:32.120Z,74.86
2022-09-11T03:59:00.682Z,74.39
2022-09-11T04:01:29.394Z,74.49
2022-09-11T04:03:57.869Z,74.05
2022-09-11T04:06:26.900Z,73.74
2022-09-11T04:08:55.067Z,74.12
2022-09-11T04:11:23.254Z,74.25
2022-09-11T04:13:51.579Z,74.05
2022-09-11T04:16:20.480Z,73.70
2022-09-11T04:18:49.804Z,74.01
2022-09-11T04:21:19.465Z,73.35
2022-09-11T04:23:54.643Z,73.41
2022-09-11T04:26:24.986Z,73.28
2022-09-11T04:28:53.549Z,73.10
2022-09-11T04:31:22.489Z,72.61
2022-09-11T04:33:50.455Z,72.30
2022-09-11T04:36:19.904Z,72.17
2022-09-11T04:38:49.191Z,71.64
2022-09-11T04:41:17.713Z,71.52
2022-09-11T04:43:46.043Z,71.13
2022-09-11T04:46:18.302Z,70.78
2022-09-11T04:48:48.077Z,70.29
2022-09-11T04:51:37.138Z,69.76
2022-09-11T04:54:06.545Z,69.12
2022-09-11T04:59:26.868Z,68.28
2022-09-11T05:01:54.998Z,67.77
2022-09-11T05:04:26.208Z,68.14
2022-09-11T05:06:55.110Z,68.36
2022-09-11T05:09:24.503Z,68.00
2022-09-11T05:11:54.083Z,67.79
2022-09-11T05:14:22.019Z,68.68
2022-09-11T05:16:52.870Z,68.54
2022-09-11T05:19:22.773Z,67.89
2022-09-11T05:21:51.474Z,68.14
2022-09-11T05:24:20.201Z,67.62
2022-09-11T05:26:48.178Z,67.13
2022-09-11T05:29:16.952Z,67.40
2022-09-11T05:31:45.743Z,66.92
2022-09-11T05:34:13.825Z,66.57
2022-09-11T05:36:42.258Z,66.16
2022-09-11T05:39:10.967Z,66.33
2022-09-11T05:41:39.159Z,65.51
2022-09-11T05:44:07.871Z,65.07
2022-09-11T05:46:36.533Z,64.38
2022-09-11T05:49:04.556Z,64.54
2022-09-11T05:51:36.050Z,63.47
2022-09-11T05:54:04.954Z,63.11
2022-09-11T05:56:33.495Z,62.70
2022-09-11T05:59:02.875Z,62.71
2022-09-11T06:01:31.880Z,61.87
2022-09-11T06:04:03.023Z,61.38
2022-09-11T06:06:32.228Z,61.76
2022-09-11T06:09:00.705Z,60.55
2022-09-11T06:11:29.547Z,60.21
2022-09-11T06:13:57.548Z,60.16
2022-09-11T06:16:26.242Z,60.07
2022-09-11T06:18:55.559Z,59.12
2022-09-11T06:21:29.471Z,59.09
2022-09-11T06:23:59.591Z,59.32
2022-09-11T06:26:27.780Z,58.40
2022-09-11T06:28:57.493Z,57.85
2022-09-11T06:31:27.289Z,57.23
2022-09-11T06:33:55.487Z,57.41
2022-09-11T06:36:27.331Z,56.42
2022-09-11T06:38:57.972Z,56.07
2022-09-11T06:41:27.306Z,56.34
2022-09-11T06:43:56.897Z,56.27
2022-09-11T06:46:26.185Z,55.84
2022-09-11T06:48:56.377Z,54.87
2022-09-11T06:51:25.427Z,56.49
2022-09-11T06:53:58.319Z,55.61
2022-09-11T06:56:27.452Z,55.70
2022-09-11T06:58:56.637Z,55.23
2022-09-11T07:01:25.744Z,54.53
2022-09-11T07:03:55.630Z,53.92
2022-09-11T07:06:29.227Z,53.67
2022-09-11T07:09:03.390Z,52.41
2022-09-11T07:11:35.351Z,51.17
2022-09-11T07:14:06.644Z,53.27
2022-09-11T07:16:35.564Z,51.26
2022-09-11T07:19:09.644Z,47.79
2022-09-11T07:21:37.900Z,49.82
2022-09-11T07:24:07.521Z,51.04
2022-09-11T07:26:36.705Z,48.74
2022-09-11T07:29:05.447Z,49.18
2022-09-11T07:31:34.787Z,50.40
2022-09-11T07:34:03.221Z,49.59
2022-09-11T07:36:33.858Z,48.34
2022-09-11T07:39:04.224Z,47.92
2022-09-11T07:41:32.752Z,49.39
2022-09-11T07:44:01.882Z,47.74
2022-09-11T07:46:31.405Z,48.12
2022-09-11T07:49:02.333Z,47.60
2022-09-11T07:51:30.804Z,48.24
2022-09-11T07:54:00.376Z,47.45
2022-09-11T07:56:31.497Z,46.57
2022-09-11T07:59:01.809Z,46.43
2022-09-11T08:01:31.607Z,46.68
2022-09-11T08:04:03.214Z,46.59
2022-09-11T08:06:33.737Z,46.61
2022-09-11T08:09:09.064Z,46.10
2022-09-11T08:11:40.572Z,46.02
2022-09-11T08:14:09.869Z,46.50
2022-09-11T08:16:37.974Z,46.41
2022-09-11T08:19:07.179Z,43.96
2022-09-11T08:21:35.836Z,45.42
2022-09-11T08:24:04.259Z,45.39
2022-09-11T08:26:33.135Z,39.50
2022-09-11T08:29:11.082Z,35.74
2022-09-11T08:31:39.969Z,35.32
2022-09-11T08:36:55.408Z,44.09
2022-09-11T08:39:24.814Z,37.00
2022-09-11T08:45:01.079Z,42.65
2022-09-11T08:47:37.041Z,35.45
2022-09-11T08:50:22.399Z,42.94
2022-09-11T08:52:50.980Z,39.95
2022-09-11T08:55:44.320Z,33.33
2022-09-11T08:58:37.294Z,40.60
2022-09-11T09:01:16.315Z,41.96
2022-09-11T09:03:44.345Z,41.31
2022-09-11T09:06:43.467Z,36.31
2022-09-11T09:09:34.791Z,41.21
2022-09-11T09:12:53.525Z,40.83
2022-09-11T09:15:31.420Z,35.44
2022-09-11T09:18:23.544Z,37.65
2022-09-11T09:21:05.948Z,41.19
2022-09-11T09:23:51.801Z,37.39
2022-09-11T09:26:19.964Z,41.05
2022-09-11T09:28:52.195Z,39.69
2022-09-11T09:31:26.474Z,39.19
2022-09-11T09:34:07.168Z,38.80
2022-09-11T09:37:01.271Z,38.69
2022-09-11T09:39:29.886Z,33.37
2022-09-11T09:42:19.429Z,30.43
2022-09-11T09:44:51.023Z,39.00
2022-09-11T09:47:19.260Z,39.23
2022-09-11T09:49:47.674Z,38.20
2022-09-11T09:52:26.909Z,37.56
2022-09-11T09:55:04.886Z,36.83
2022-09-11T09:57:37.971Z,38.02
2022-09-11T10:00:08.135Z,39.29
2022-09-11T10:02:49.555Z,38.97
2022-09-11T10:05:41.218Z,37.81
2022-09-11T10:08:25.682Z,38.16
2022-09-11T10:11:04.805Z,38.07
2022-09-11T10:13:52.753Z,39.23
2022-09-11T10:16:24.204Z,36.01
2022-09-11T10:18:53.578Z,31.17
2022-09-11T10:21:30.562Z,37.45
2022-09-11T10:24:23.645Z,38.64
2022-09-11T10:26:55.193Z,32.62
2022-09-11T10:29:31.007Z,30.14
2022-09-11T10:32:03.369Z,37.98
2022-09-11T10:34:40.939Z,31.11
2022-09-11T10:37:24.574Z,32.62
2022-09-11T10:39:54.440Z,39.35
2022-09-11T10:42:28.194Z,36.97
2022-09-11T10:45:10.711Z,37.90
2022-09-11T10:47:38.969Z,35.37
2022-09-11T10:50:18.580Z,39.15
2022-09-11T10:52:58.739Z,39.24
2022-09-11T10:55:36.863Z,31.59
2022-09-11T10:58:23.053Z,32.19
2022-09-11T11:00:52.463Z,39.67
2022-09-11T11:03:26.784Z,31.36
2022-09-11T11:05:57.068Z,37.82
2022-09-11T11:08:42.368Z,39.52
2022-09-11T11:11:25.690Z,39.38
2022-09-11T11:14:07.874Z,39.47
2022-09-11T11:17:06.561Z,32.02
2022-09-11T11:19:47.417Z,32.92
2022-09-11T11:22:29.119Z,38.22
2022-09-11T11:25:20.288Z,38.63
2022-09-11T11:28:10.213Z,36.43
2022-09-11T11:31:01.453Z,39.50
2022-09-11T11:33:47.676Z,32.06
2022-09-11T11:36:48.596Z,39.56
2022-09-11T11:39:28.523Z,39.31
2022-09-11T11:42:40.316Z,37.37
2022-09-11T11:45:32.409Z,37.36
2022-09-11T11:48:05.481Z,35.03
2022-09-11T11:50:42.040Z,39.95
2022-09-11T11:53:29.035Z,34.12
2022-09-11T11:56:08.909Z,37.95
2022-09-11T11:58:50.790Z,34.33
2022-09-11T12:01:41.356Z,39.00
2022-09-11T12:04:32.876Z,34.99
2022-09-11T12:07:03.743Z,31.84
2022-09-11T12:09:33.896Z,35.95
2022-09-11T12:12:06.914Z,31.79
2022-09-11T12:14:35.487Z,33.88
2022-09-11T12:17:27.693Z,32.48
2022-09-11T12:20:11.001Z,39.58
2022-09-11T12:22:50.046Z,32.29
2022-09-11T12:25:23.385Z,39.85
2022-09-11T12:27:51.389Z,31.84
2022-09-11T12:30:20.774Z,31.52
2022-09-11T12:32:50.092Z,31.34
2022-09-11T12:35:20.435Z,33.21
2022-09-11T12:38:09.388Z,32.18
2022-09-11T12:40:53.656Z,39.48
2022-09-11T12:43:36.862Z,35.55
2022-09-11T12:46:09.710Z,39.62
2022-09-11T12:51:43.275Z,38.96
2022-09-11T12:54:21.393Z,38.56
2022-09-11T12:57:19.595Z,35.37
2022-09-11T12:59:59.699Z,33.02
2022-09-11T13:02:44.361Z,39.39
2022-09-11T13:05:34.859Z,38.28
2022-09-11T13:08:09.533Z,34.24
2022-09-11T13:10:39.415Z,39.39
2022-09-11T13:13:36.291Z,40.04
2022-09-11T13:16:24.611Z,33.95
2022-09-11T13:19:17.694Z,32.78
2022-09-11T13:21:48.370Z,33.44
2022-09-11T13:24:30.847Z,33.68
2022-09-11T13:30:02.988Z,35.51
2022-09-11T13:32:31.495Z,34.77
2022-09-11T13:35:05.291Z,35.87
2022-09-11T13:37:37.836Z,35.48
2022-09-11T13:40:08.380Z,36.37
2022-09-11T13:45:24.023Z,37.69
2022-09-11T13:47:53.369Z,40.56
2022-09-11T13:50:23.380Z,39.27
2022-09-11T13:52:53.923Z,36.08
2022-09-11T13:55:27.235Z,36.20
2022-09-11T13:57:58.823Z,42.02
2022-09-11T14:00:37.721Z,39.22
2022-09-11T14:03:15.479Z,40.31
2022-09-11T14:06:13.805Z,41.43
2022-09-11T14:08:51.897Z,41.43
2022-09-11T14:14:25.281Z,37.58
2022-09-11T14:17:01.586Z,41.42
2022-09-11T14:19:34.416Z,41.17
2022-09-11T14:22:14.416Z,41.39
2022-09-11T14:24:54.981Z,40.84
2022-09-11T14:27:33.066Z,42.64
2022-09-11T14:30:01.205Z,42.86
2022-09-11T14:32:34.148Z,42.64
2022-09-11T14:35:03.109Z,42.27
2022-09-11T14:40:20.624Z,43.06
2022-09-11T14:42:49.169Z,44.38
2022-09-11T14:45:23.571Z,44.75
2022-09-11T14:48:14.753Z,44.71
2022-09-11T14:50:42.793Z,46.01
2022-09-11T14:53:24.258Z,45.23
2022-09-11T14:55:52.047Z,45.85
2022-09-11T14:58:21.224Z,46.44
2022-09-11T15:00:49.112Z,45.62
2022-09-11T15:03:20.430Z,47.06
2022-09-11T15:05:54.045Z,46.73
2022-09-11T15:08:22.018Z,48.68
2022-09-11T15:10:51.132Z,49.67
2022-09-11T15:13:19.695Z,50.40
2022-09-11T15:15:48.349Z,48.09
2022-09-11T15:18:18.272Z,50.58
2022-09-11T15:20:46.018Z,50.84
2022-09-11T15:26:03.907Z,51.57
2022-09-11T15:28:32.268Z,50.98
2022-09-11T15:31:00.814Z,51.40
2022-09-11T15:33:29.390Z,51.51
2022-09-11T15:36:03.170Z,52.89
2022-09-11T15:38:32.477Z,53.40
2022-09-11T15:41:00.329Z,52.97
2022-09-11T15:43:36.663Z,54.90
2022-09-11T15:46:13.654Z,55.32
2022-09-11T15:48:41.853Z,54.97
2022-09-11T15:51:14.937Z,54.82
2022-09-11T15:53:44.358Z,54.97
2022-09-11T15:56:18.683Z,54.50
2022-09-11T15:58:48.598Z,55.51
2022-09-11T16:01:26.516Z,54.92
2022-09-11T16:03:57.208Z,55.21
2022-09-11T16:06:28.781Z,54.75
2022-09-11T16:09:05.996Z,54.56
2022-09-11T16:11:34.963Z,54.52
2022-09-11T16:14:03.735Z,54.34
2022-09-11T16:16:31.574Z,53.43
2022-09-11T16:19:01.943Z,53.57
2022-09-11T16:21:32.656Z,53.80
2022-09-11T16:24:01.757Z,53.97
2022-09-11T16:26:31.937Z,53.96
2022-09-11T16:28:59.658Z,54.82
2022-09-11T16:31:27.490Z,54.72
2022-09-11T16:33:57.212Z,55.02
2022-09-11T16:36:25.609Z,55.25
2022-09-11T16:38:55.200Z,55.79
2022-09-11T16:41:25.822Z,55.69
2022-09-11T16:43:54.497Z,55.92
2022-09-11T16:49:15.734Z,55.99
2022-09-11T16:51:45.471Z,55.55
2022-09-11T16:54:14.236Z,55.84
2022-09-11T16:56:45.930Z,56.17
2022-09-11T16:59:15.928Z,56.02
2022-09-11T17:01:43.853Z,56.52
2022-09-11T17:04:11.607Z,56.08
2022-09-11T17:06:39.770Z,55.96
2022-09-11T17:09:07.574Z,55.97
2022-09-11T17:11:36.657Z,55.58
2022-09-11T17:14:04.874Z,55.75
2022-09-11T17:16:35.954Z,56.14
2022-09-11T17:21:51.139Z,56.45
2022-09-11T17:24:22.003Z,56.77
2022-09-11T17:26:51.002Z,56.97
2022-09-11T17:29:20.004Z,56.50
2022-09-11T17:31:47.807Z,55.82
2022-09-11T17:34:15.845Z,54.30
2022-09-11T17:39:29.204Z,54.29
2022-09-11T17:41:57.272Z,58.22
2022-09-11T17:44:25.128Z,56.45
2022-09-11T17:46:53.350Z,54.88
2022-09-11T17:52:07.654Z,54.47
2022-09-11T17:54:36.106Z,56.21
2022-09-11T17:57:04.118Z,55.39
2022-09-11T17:59:31.897Z,56.75
2022-09-11T18:02:01.537Z,56.67
2022-09-11T18:04:29.860Z,57.33
2022-09-11T18:06:57.822Z,57.19
2022-09-11T18:09:25.664Z,56.15
2022-09-11T18:11:54.871Z,56.70
2022-09-11T18:14:23.264Z,60.14
2022-09-11T18:16:50.987Z,58.08
2022-09-11T18:19:22.686Z,57.32
2022-09-11T18:21:51.615Z,57.90
2022-09-11T18:24:20.967Z,60.26
2022-09-11T18:26:51.658Z,60.33
2022-09-11T18:29:22.083Z,60.28
2022-09-11T18:31:52.804Z,61.40
2022-09-11T18:34:27.171Z,61.95
2022-09-11T18:36:55.495Z,59.03
2022-09-11T18:39:26.386Z,59.03
2022-09-11T18:41:54.706Z,58.66
2022-09-11T18:44:24.899Z,62.14
2022-09-11T18:46:54.488Z,59.94
2022-09-11T18:49:22.615Z,58.75
2022-09-11T18:51:51.322Z,58.05
2022-09-11T18:54:23.975Z,57.28
2022-09-11T18:56:52.354Z,57.30
2022-09-11T18:59:20.464Z,57.60
2022-09-11T19:01:48.593Z,58.83
2022-09-11T19:04:17.505Z,57.47
2022-09-11T19:06:46.518Z,57.04
2022-09-11T19:09:15.938Z,57.28
2022-09-11T19:11:44.425Z,57.11
2022-09-11T19:14:13.079Z,57.20
2022-09-11T19:16:40.977Z,57.55
2022-09-11T19:19:09.555Z,57.54
2022-09-11T19:21:38.631Z,58.63
2022-09-11T19:24:07.859Z,58.06
2022-09-11T19:26:42.166Z,57.67
2022-09-11T19:29:10.457Z,57.98
2022-09-11T19:31:39.681Z,57.93
2022-09-11T19:34:09.813Z,58.46
2022-09-11T19:36:38.924Z,58.45
2022-09-11T19:39:07.035Z,59.16
2022-09-11T19:41:37.683Z,58.74
2022-09-11T19:44:07.880Z,62.58
2022-09-11T19:46:38.331Z,61.93
2022-09-11T19:49:07.473Z,63.85
2022-09-11T19:51:38.697Z,63.87
2022-09-11T19:54:10.093Z,64.08
2022-09-11T19:56:38.401Z,64.75
2022-09-11T19:59:11.011Z,62.57
2022-09-11T20:01:38.774Z,64.74
2022-09-11T20:04:07.056Z,66.55
2022-09-11T20:06:35.662Z,62.21
2022-09-11T20:11:54.286Z,65.75
2022-09-11T20:14:22.110Z,64.84
2022-09-11T20:16:50.108Z,62.45
2022-09-11T20:19:18.238Z,65.12
2022-09-11T20:21:46.088Z,64.14
2022-09-11T20:24:15.240Z,63.71
2022-09-11T20:26:43.512Z,65.11
2022-09-11T20:29:15.839Z,66.97
2022-09-11T20:31:49.005Z,66.78
2022-09-11T20:34:18.554Z,63.67
2022-09-11T20:36:47.359Z,63.60
2022-09-11T20:39:15.942Z,62.88
2022-09-11T20:41:43.901Z,61.10
2022-09-11T20:44:12.398Z,62.26
2022-09-11T20:46:40.797Z,63.75
2022-09-11T20:49:08.680Z,61.87
2022-09-11T20:51:36.951Z,62.65
2022-09-11T20:54:04.872Z,60.95
2022-09-11T20:59:19.170Z,63.32
2022-09-11T21:01:47.342Z,61.66
2022-09-11T21:04:15.273Z,61.60
2022-09-11T21:06:43.540Z,63.40
2022-09-11T21:09:11.878Z,62.70
2022-09-11T21:11:42.830Z,62.78
2022-09-11T21:14:16.009Z,62.91
2022-09-11T21:16:43.760Z,60.04
2022-09-11T21:19:11.969Z,63.26
2022-09-11T21:21:40.675Z,60.68
2022-09-11T21:24:11.996Z,60.60
2022-09-11T21:26:41.121Z,61.09
2022-09-11T21:29:11.755Z,59.81
2022-09-11T21:31:39.649Z,61.99
2022-09-11T21:36:52.926Z,62.12
2022-09-11T21:39:21.087Z,59.85
2022-09-11T21:41:48.783Z,61.76
2022-09-11T21:44:16.604Z,61.59
2022-09-11T21:46:44.707Z,61.86
2022-09-11T21:49:12.728Z,60.79
2022-09-11T21:51:40.998Z,62.58
2022-09-11T21:54:09.141Z,61.66
2022-09-11T21:56:37.065Z,60.45
2022-09-11T21:59:04.889Z,60.95
2022-09-11T22:01:33.330Z,61.36
2022-09-11T22:04:02.179Z,60.17
2022-09-11T22:06:30.652Z,60.84
2022-09-11T22:08:59.255Z,60.38
2022-09-11T22:11:27.583Z,61.21
2022-09-11T22:13:55.390Z,63.02
2022-09-11T22:16:23.757Z,61.22
2022-09-11T22:18:53.842Z,61.62
2022-09-11T22:21:21.903Z,59.77
2022-09-11T22:23:50.398Z,61.48
2022-09-11T22:26:21.308Z,61.31
2022-09-11T22:28:49.034Z,61.23
2022-09-11T22:31:22.655Z,63.49
2022-09-11T22:33:51.155Z,63.83
2022-09-11T22:36:25.129Z,63.08
2022-09-11T22:38:53.999Z,61.47
2022-09-11T22:41:22.360Z,63.28
2022-09-11T22:43:53.206Z,60.02
2022-09-11T22:46:21.955Z,60.96
2022-09-11T22:48:50.289Z,62.63
2022-09-11T22:51:18.157Z,60.96
2022-09-11T22:53:47.095Z,63.32
2022-09-11T22:56:16.100Z,61.48
2022-09-11T22:58:43.980Z,60.60
2022-09-11T23:01:21.125Z,61.20
2022-09-11T23:03:54.951Z,62.91
2022-09-11T23:06:44.633Z,61.63
2022-09-11T23:09:17.064Z,60.82
2022-09-11T23:11:46.616Z,61.45
2022-09-11T23:14:15.028Z,60.78
2022-09-11T23:16:44.208Z,62.93
2022-09-11T23:19:14.453Z,63.22
2022-09-11T23:21:43.025Z,62.79
2022-09-11T23:24:14.804Z,62.70
2022-09-11T23:26:43.664Z,64.80
2022-09-11T23:29:12.588Z,63.55
2022-09-11T23:31:41.013Z,63.62
2022-09-11T23:34:09.556Z,62.57
2022-09-11T23:36:37.331Z,62.44
2022-09-11T23:39:05.110Z,62.00
2022-09-11T23:41:33.583Z,61.61
2022-09-11T23:44:01.430Z,61.09
2022-09-11T23:46:29.137Z,60.96
2022-09-11T23:48:57.230Z,62.05
2022-09-11T23:51:25.055Z,61.41
2022-09-11T23:53:52.992Z,60.91
2022-09-11T23:56:22.678Z,62.23
2022-09-11T23:58:51.747Z,63.24
